sensor_id;sensor_type;location;lat;lon;timestamp;P1;durP1;ratioP1;P2;durP2;ratioP2
35530;SDS011;21637;53.352;-6.356;2023-10-13T00:01:53;29.25;;;12.68;;
35530;SDS011;21637;53.352;-6.356;2023-10-13T00:04:20;18.70;;;8.32;;
35530;SDS011;21637;53.352;-6.356;2023-10-13T00:06:56;14.65;;;7.38;;
35530;SDS011;21637;53.352;-6.356;2023-10-13T00:09:25;13.43;;;6.75;;
35530;SDS011;21637;53.352;-6.356;2023-10-13T00:11:57;11.75;;;5.90;;
35530;SDS011;21637;53.352;-6.356;2023-10-13T00:14:24;8.90;;;5.05;;
35530;SDS011;21637;53.352;-6.356;2023-10-13T00:17:02;8.63;;;5.10;;
35530;SDS011;21637;53.352;-6.356;2023-10-13T00:19:32;7.10;;;4.70;;
35530;SDS011;21637;53.352;-6.356;2023-10-13T00:22:15;6.93;;;4.40;;
35530;SDS011;21637;53.352;-6.356;2023-10-13T00:24:42;8.25;;;4.65;;
35530;SDS011;21637;53.352;-6.356;2023-10-13T00:27:11;8.02;;;4.28;;
35530;SDS011;21637;53.352;-6.356;2023-10-13T00:29:57;9.10;;;5.18;;
35530;SDS011;21637;53.352;-6.356;2023-10-13T00:32:46;8.40;;;4.70;;
35530;SDS011;21637;53.352;-6.356;2023-10-13T00:35:23;14.98;;;5.32;;
35530;SDS011;21637;53.352;-6.356;2023-10-13T00:38:01;8.50;;;4.65;;
35530;SDS011;21637;53.352;-6.356;2023-10-13T00:40:37;10.13;;;4.95;;
35530;SDS011;21637;53.352;-6.356;2023-10-13T00:43:04;8.27;;;4.32;;
35530;SDS011;21637;53.352;-6.356;2023-10-13T00:45:46;6.38;;;4.07;;
35530;SDS011;21637;53.352;-6.356;2023-10-13T00:48:25;11.80;;;4.97;;
35530;SDS011;21637;53.352;-6.356;2023-10-13T00:51:01;11.38;;;4.72;;
35530;SDS011;21637;53.352;-6.356;2023-10-13T00:53:31;7.35;;;4.20;;
35530;SDS011;21637;53.352;-6.356;2023-10-13T00:56:09;10.70;;;4.57;;
35530;SDS011;21637;53.352;-6.356;2023-10-13T00:58:44;11.27;;;4.95;;
35530;SDS011;21637;53.352;-6.356;2023-10-13T01:01:11;10.77;;;4.70;;
35530;SDS011;21637;53.352;-6.356;2023-10-13T01:03:50;12.18;;;4.55;;
35530;SDS011;21637;53.352;-6.356;2023-10-13T01:06:21;10.38;;;4.78;;
35530;SDS011;21637;53.352;-6.356;2023-10-13T01:08:57;15.98;;;5.18;;
35530;SDS011;21637;53.352;-6.356;2023-10-13T01:11:52;9.57;;;4.60;;
35530;SDS011;21637;53.352;-6.356;2023-10-13T01:14:21;14.60;;;5.97;;
35530;SDS011;21637;53.352;-6.356;2023-10-13T01:16:52;10.93;;;6.30;;
35530;SDS011;21637;53.352;-6.356;2023-10-13T01:19:18;14.50;;;6.25;;
35530;SDS011;21637;53.352;-6.356;2023-10-13T01:21:49;10.85;;;5.43;;
35530;SDS011;21637;53.352;-6.356;2023-10-13T01:24:19;13.95;;;6.45;;
35530;SDS011;21637;53.352;-6.356;2023-10-13T01:26:49;10.75;;;6.40;;
35530;SDS011;21637;53.352;-6.356;2023-10-13T01:29:18;8.02;;;5.30;;
35530;SDS011;21637;53.352;-6.356;2023-10-13T01:31:44;13.85;;;6.75;;
35530;SDS011;21637;53.352;-6.356;2023-10-13T01:34:19;7.97;;;5.53;;
35530;SDS011;21637;53.352;-6.356;2023-10-13T01:36:49;9.98;;;5.53;;
35530;SDS011;21637;53.352;-6.356;2023-10-13T01:39:22;9.50;;;4.97;;
35530;SDS011;21637;53.352;-6.356;2023-10-13T01:41:53;11.10;;;6.15;;
35530;SDS011;21637;53.352;-6.356;2023-10-13T01:44:23;12.80;;;6.03;;
35530;SDS011;21637;53.352;-6.356;2023-10-13T01:46:51;10.50;;;5.68;;
35530;SDS011;21637;53.352;-6.356;2023-10-13T01:49:17;9.55;;;5.82;;
35530;SDS011;21637;53.352;-6.356;2023-10-13T01:51:43;13.80;;;5.93;;
35530;SDS011;21637;53.352;-6.356;2023-10-13T01:54:12;12.77;;;6.05;;
35530;SDS011;21637;53.352;-6.356;2023-10-13T01:56:38;18.60;;;6.53;;
35530;SDS011;21637;53.352;-6.356;2023-10-13T01:59:11;16.98;;;7.18;;
35530;SDS011;21637;53.352;-6.356;2023-10-13T02:01:38;15.77;;;7.25;;
35530;SDS011;21637;53.352;-6.356;2023-10-13T02:04:05;13.32;;;6.90;;
35530;SDS011;21637;53.352;-6.356;2023-10-13T02:06:32;9.32;;;6.13;;
35530;SDS011;21637;53.352;-6.356;2023-10-13T02:11:51;17.00;;;7.50;;
35530;SDS011;21637;53.352;-6.356;2023-10-13T02:14:21;11.15;;;6.82;;
35530;SDS011;21637;53.352;-6.356;2023-10-13T02:16:48;14.93;;;6.43;;
35530;SDS011;21637;53.352;-6.356;2023-10-13T02:19:20;14.95;;;7.10;;
35530;SDS011;21637;53.352;-6.356;2023-10-13T02:21:47;14.88;;;6.53;;
35530;SDS011;21637;53.352;-6.356;2023-10-13T02:24:23;14.10;;;6.93;;
35530;SDS011;21637;53.352;-6.356;2023-10-13T02:26:55;18.42;;;7.78;;
35530;SDS011;21637;53.352;-6.356;2023-10-13T02:29:27;13.60;;;6.78;;
35530;SDS011;21637;53.352;-6.356;2023-10-13T02:31:53;16.50;;;7.35;;
35530;SDS011;21637;53.352;-6.356;2023-10-13T02:34:20;13.20;;;6.65;;
35530;SDS011;21637;53.352;-6.356;2023-10-13T02:36:48;17.67;;;7.68;;
35530;SDS011;21637;53.352;-6.356;2023-10-13T02:39:14;13.70;;;7.32;;
35530;SDS011;21637;53.352;-6.356;2023-10-13T02:41:51;12.50;;;6.20;;
35530;SDS011;21637;53.352;-6.356;2023-10-13T02:44:20;10.98;;;7.57;;
35530;SDS011;21637;53.352;-6.356;2023-10-13T02:46:55;14.73;;;7.05;;
35530;SDS011;21637;53.352;-6.356;2023-10-13T02:49:24;9.48;;;6.65;;
35530;SDS011;21637;53.352;-6.356;2023-10-13T02:51:59;12.60;;;7.30;;
35530;SDS011;21637;53.352;-6.356;2023-10-13T02:54:30;18.70;;;7.55;;
35530;SDS011;21637;53.352;-6.356;2023-10-13T02:57:02;10.57;;;6.38;;
35530;SDS011;21637;53.352;-6.356;2023-10-13T02:59:31;12.02;;;7.13;;
35530;SDS011;21637;53.352;-6.356;2023-10-13T03:02:11;17.40;;;8.00;;
35530;SDS011;21637;53.352;-6.356;2023-10-13T03:04:54;11.88;;;7.32;;
35530;SDS011;21637;53.352;-6.356;2023-10-13T03:07:25;17.35;;;7.90;;
35530;SDS011;21637;53.352;-6.356;2023-10-13T03:09:54;17.10;;;8.10;;
35530;SDS011;21637;53.352;-6.356;2023-10-13T03:12:24;15.18;;;8.13;;
35530;SDS011;21637;53.352;-6.356;2023-10-13T03:14:51;18.05;;;8.70;;
35530;SDS011;21637;53.352;-6.356;2023-10-13T03:17:22;16.60;;;8.27;;
35530;SDS011;21637;53.352;-6.356;2023-10-13T03:19:58;13.55;;;7.38;;
35530;SDS011;21637;53.352;-6.356;2023-10-13T03:22:24;11.45;;;7.38;;
35530;SDS011;21637;53.352;-6.356;2023-10-13T03:24:57;12.00;;;6.95;;
35530;SDS011;21637;53.352;-6.356;2023-10-13T03:27:34;17.25;;;7.78;;
35530;SDS011;21637;53.352;-6.356;2023-10-13T03:30:13;16.65;;;8.07;;
35530;SDS011;21637;53.352;-6.356;2023-10-13T03:32:40;10.38;;;7.45;;
35530;SDS011;21637;53.352;-6.356;2023-10-13T03:35:12;19.92;;;8.90;;
35530;SDS011;21637;53.352;-6.356;2023-10-13T03:38:01;11.52;;;7.20;;
35530;SDS011;21637;53.352;-6.356;2023-10-13T03:40:26;11.38;;;7.47;;
35530;SDS011;21637;53.352;-6.356;2023-10-13T03:42:53;14.75;;;7.25;;
35530;SDS011;21637;53.352;-6.356;2023-10-13T03:45:29;16.85;;;9.85;;
35530;SDS011;21637;53.352;-6.356;2023-10-13T03:48:07;14.15;;;8.07;;
35530;SDS011;21637;53.352;-6.356;2023-10-13T03:50:53;11.73;;;7.70;;
35530;SDS011;21637;53.352;-6.356;2023-10-13T03:53:32;15.93;;;9.10;;
35530;SDS011;21637;53.352;-6.356;2023-10-13T03:56:00;16.13;;;8.77;;
35530;SDS011;21637;53.352;-6.356;2023-10-13T03:58:51;16.10;;;8.98;;
35530;SDS011;21637;53.352;-6.356;2023-10-13T04:01:19;13.63;;;7.93;;
35530;SDS011;21637;53.352;-6.356;2023-10-13T04:03:57;11.27;;;8.27;;
35530;SDS011;21637;53.352;-6.356;2023-10-13T04:06:34;18.88;;;10.85;;
35530;SDS011;21637;53.352;-6.356;2023-10-13T04:09:15;14.60;;;10.85;;
35530;SDS011;21637;53.352;-6.356;2023-10-13T04:17:15;14.30;;;11.20;;
35530;SDS011;21637;53.352;-6.356;2023-10-13T04:19:47;13.23;;;11.50;;
35530;SDS011;21637;53.352;-6.356;2023-10-13T04:25:14;21.83;;;14.10;;
35530;SDS011;21637;53.352;-6.356;2023-10-13T04:28:08;18.73;;;14.30;;
35530;SDS011;21637;53.352;-6.356;2023-10-13T04:30:36;17.55;;;14.68;;
35530;SDS011;21637;53.352;-6.356;2023-10-13T04:33:17;21.15;;;16.08;;
35530;SDS011;21637;53.352;-6.356;2023-10-13T04:36:09;18.45;;;15.98;;
35530;SDS011;21637;53.352;-6.356;2023-10-13T04:38:45;20.98;;;16.73;;
35530;SDS011;21637;53.352;-6.356;2023-10-13T04:41:32;20.42;;;16.73;;
35530;SDS011;21637;53.352;-6.356;2023-10-13T04:44:05;21.77;;;17.00;;
35530;SDS011;21637;53.352;-6.356;2023-10-13T04:46:51;20.05;;;15.27;;
35530;SDS011;21637;53.352;-6.356;2023-10-13T04:49:24;20.80;;;15.02;;
35530;SDS011;21637;53.352;-6.356;2023-10-13T04:51:55;16.92;;;13.52;;
35530;SDS011;21637;53.352;-6.356;2023-10-13T04:54:27;12.30;;;10.07;;
35530;SDS011;21637;53.352;-6.356;2023-10-13T04:57:13;9.57;;;8.18;;
35530;SDS011;21637;53.352;-6.356;2023-10-13T04:59:48;10.43;;;7.00;;
35530;SDS011;21637;53.352;-6.356;2023-10-13T05:02:37;9.38;;;6.35;;
35530;SDS011;21637;53.352;-6.356;2023-10-13T05:05:07;10.13;;;5.80;;
35530;SDS011;21637;53.352;-6.356;2023-10-13T05:07:43;8.80;;;6.32;;
35530;SDS011;21637;53.352;-6.356;2023-10-13T05:10:32;9.25;;;5.72;;
35530;SDS011;21637;53.352;-6.356;2023-10-13T05:13:18;9.02;;;5.57;;
35530;SDS011;21637;53.352;-6.356;2023-10-13T05:16:02;6.80;;;4.22;;
35530;SDS011;21637;53.352;-6.356;2023-10-13T05:18:47;7.95;;;4.28;;
35530;SDS011;21637;53.352;-6.356;2023-10-13T05:21:31;6.82;;;2.80;;
35530;SDS011;21637;53.352;-6.356;2023-10-13T05:24:15;7.45;;;2.47;;
35530;SDS011;21637;53.352;-6.356;2023-10-13T05:26:59;4.22;;;2.45;;
35530;SDS011;21637;53.352;-6.356;2023-10-13T05:29:44;7.25;;;3.78;;
35530;SDS011;21637;53.352;-6.356;2023-10-13T05:32:29;3.45;;;2.80;;
35530;SDS011;21637;53.352;-6.356;2023-10-13T05:35:14;5.65;;;2.80;;
35530;SDS011;21637;53.352;-6.356;2023-10-13T05:37:59;8.30;;;3.55;;
35530;SDS011;21637;53.352;-6.356;2023-10-13T05:43:44;6.45;;;3.78;;
35530;SDS011;21637;53.352;-6.356;2023-10-13T05:46:28;6.03;;;3.65;;
35530;SDS011;21637;53.352;-6.356;2023-10-13T05:49:07;6.65;;;4.25;;
35530;SDS011;21637;53.352;-6.356;2023-10-13T05:54:05;10.20;;;3.53;;
35530;SDS011;21637;53.352;-6.356;2023-10-13T05:56:40;9.15;;;4.25;;
35530;SDS011;21637;53.352;-6.356;2023-10-13T05:59:29;8.98;;;3.60;;
35530;SDS011;21637;53.352;-6.356;2023-10-13T06:02:14;6.20;;;2.50;;
35530;SDS011;21637;53.352;-6.356;2023-10-13T06:05:09;5.93;;;2.55;;
35530;SDS011;21637;53.352;-6.356;2023-10-13T06:07:54;7.88;;;3.00;;
35530;SDS011;21637;53.352;-6.356;2023-10-13T06:10:40;6.53;;;2.67;;
35530;SDS011;21637;53.352;-6.356;2023-10-13T06:13:24;8.60;;;3.22;;
35530;SDS011;21637;53.352;-6.356;2023-10-13T06:16:10;9.30;;;3.40;;
35530;SDS011;21637;53.352;-6.356;2023-10-13T06:18:56;4.45;;;3.10;;
35530;SDS011;21637;53.352;-6.356;2023-10-13T06:21:40;6.13;;;3.20;;
35530;SDS011;21637;53.352;-6.356;2023-10-13T06:24:25;9.82;;;4.70;;
35530;SDS011;21637;53.352;-6.356;2023-10-13T06:27:09;7.85;;;3.50;;
35530;SDS011;21637;53.352;-6.356;2023-10-13T06:29:53;8.68;;;3.88;;
35530;SDS011;21637;53.352;-6.356;2023-10-13T06:32:19;13.15;;;3.80;;
35530;SDS011;21637;53.352;-6.356;2023-10-13T06:34:50;6.30;;;3.05;;
35530;SDS011;21637;53.352;-6.356;2023-10-13T06:37:22;9.60;;;3.10;;
35530;SDS011;21637;53.352;-6.356;2023-10-13T06:39:54;6.20;;;2.47;;
35530;SDS011;21637;53.352;-6.356;2023-10-13T06:42:24;5.13;;;2.92;;
35530;SDS011;21637;53.352;-6.356;2023-10-13T06:44:54;9.55;;;3.30;;
35530;SDS011;21637;53.352;-6.356;2023-10-13T06:47:20;5.50;;;2.83;;
35530;SDS011;21637;53.352;-6.356;2023-10-13T06:49:47;7.28;;;2.92;;
35530;SDS011;21637;53.352;-6.356;2023-10-13T06:52:19;6.85;;;3.13;;
35530;SDS011;21637;53.352;-6.356;2023-10-13T06:54:51;10.88;;;4.07;;
35530;SDS011;21637;53.352;-6.356;2023-10-13T06:57:18;6.68;;;3.35;;
35530;SDS011;21637;53.352;-6.356;2023-10-13T06:59:47;7.25;;;3.45;;
35530;SDS011;21637;53.352;-6.356;2023-10-13T07:02:13;7.10;;;3.63;;
35530;SDS011;21637;53.352;-6.356;2023-10-13T07:04:48;10.77;;;3.15;;
35530;SDS011;21637;53.352;-6.356;2023-10-13T07:07:15;7.82;;;2.80;;
35530;SDS011;21637;53.352;-6.356;2023-10-13T07:09:42;10.77;;;3.03;;
35530;SDS011;21637;53.352;-6.356;2023-10-13T07:12:23;8.32;;;3.40;;
35530;SDS011;21637;53.352;-6.356;2023-10-13T07:14:51;7.97;;;2.92;;
35530;SDS011;21637;53.352;-6.356;2023-10-13T07:17:18;7.57;;;2.90;;
35530;SDS011;21637;53.352;-6.356;2023-10-13T07:19:54;8.88;;;3.10;;
35530;SDS011;21637;53.352;-6.356;2023-10-13T07:22:24;6.75;;;2.78;;
35530;SDS011;21637;53.352;-6.356;2023-10-13T07:24:52;10.63;;;3.20;;
35530;SDS011;21637;53.352;-6.356;2023-10-13T07:27:19;7.60;;;3.03;;
35530;SDS011;21637;53.352;-6.356;2023-10-13T07:29:49;5.47;;;2.00;;
35530;SDS011;21637;53.352;-6.356;2023-10-13T07:32:42;7.25;;;2.90;;
35530;SDS011;21637;53.352;-6.356;2023-10-13T07:35:15;7.30;;;3.20;;
35530;SDS011;21637;53.352;-6.356;2023-10-13T07:37:45;9.05;;;2.53;;
35530;SDS011;21637;53.352;-6.356;2023-10-13T07:40:17;5.13;;;2.70;;
35530;SDS011;21637;53.352;-6.356;2023-10-13T07:42:52;4.65;;;2.40;;
35530;SDS011;21637;53.352;-6.356;2023-10-13T07:45:35;5.03;;;2.13;;
35530;SDS011;21637;53.352;-6.356;2023-10-13T07:48:06;7.25;;;2.03;;
35530;SDS011;21637;53.352;-6.356;2023-10-13T07:51:03;4.28;;;1.83;;
35530;SDS011;21637;53.352;-6.356;2023-10-13T07:53:31;7.65;;;2.40;;
35530;SDS011;21637;53.352;-6.356;2023-10-13T07:56:00;6.55;;;2.30;;
35530;SDS011;21637;53.352;-6.356;2023-10-13T08:00:58;6.07;;;2.53;;
35530;SDS011;21637;53.352;-6.356;2023-10-13T08:03:33;9.27;;;2.58;;
35530;SDS011;21637;53.352;-6.356;2023-10-13T08:06:08;7.65;;;2.05;;
35530;SDS011;21637;53.352;-6.356;2023-10-13T08:08:37;7.68;;;1.90;;
35530;SDS011;21637;53.352;-6.356;2023-10-13T08:11:10;6.05;;;1.73;;
35530;SDS011;21637;53.352;-6.356;2023-10-13T08:13:53;4.18;;;1.83;;
35530;SDS011;21637;53.352;-6.356;2023-10-13T08:16:39;6.15;;;2.03;;
35530;SDS011;21637;53.352;-6.356;2023-10-13T08:19:18;5.63;;;1.83;;
35530;SDS011;21637;53.352;-6.356;2023-10-13T08:21:46;5.25;;;1.95;;
35530;SDS011;21637;53.352;-6.356;2023-10-13T08:24:23;5.30;;;2.40;;
35530;SDS011;21637;53.352;-6.356;2023-10-13T08:27:13;6.15;;;2.00;;
35530;SDS011;21637;53.352;-6.356;2023-10-13T08:29:40;6.40;;;2.22;;
35530;SDS011;21637;53.352;-6.356;2023-10-13T08:32:19;10.82;;;3.05;;
35530;SDS011;21637;53.352;-6.356;2023-10-13T08:35:01;4.13;;;1.93;;
35530;SDS011;21637;53.352;-6.356;2023-10-13T08:37:30;6.47;;;2.78;;
35530;SDS011;21637;53.352;-6.356;2023-10-13T08:40:11;8.20;;;2.45;;
35530;SDS011;21637;53.352;-6.356;2023-10-13T08:42:57;8.60;;;2.33;;
35530;SDS011;21637;53.352;-6.356;2023-10-13T08:45:27;5.57;;;2.17;;
35530;SDS011;21637;53.352;-6.356;2023-10-13T08:48:15;4.95;;;2.40;;
35530;SDS011;21637;53.352;-6.356;2023-10-13T08:50:47;5.53;;;2.38;;
35530;SDS011;21637;53.352;-6.356;2023-10-13T08:53:15;4.45;;;2.05;;
35530;SDS011;21637;53.352;-6.356;2023-10-13T08:56:00;7.00;;;2.33;;
35530;SDS011;21637;53.352;-6.356;2023-10-13T09:04:16;4.45;;;1.95;;
35530;SDS011;21637;53.352;-6.356;2023-10-13T09:09:28;4.97;;;2.05;;
35530;SDS011;21637;53.352;-6.356;2023-10-13T09:12:10;6.43;;;2.10;;
35530;SDS011;21637;53.352;-6.356;2023-10-13T09:14:36;4.95;;;2.10;;
35530;SDS011;21637;53.352;-6.356;2023-10-13T09:17:08;6.13;;;2.22;;
35530;SDS011;21637;53.352;-6.356;2023-10-13T09:19:45;6.00;;;2.08;;
35530;SDS011;21637;53.352;-6.356;2023-10-13T09:22:27;7.47;;;2.17;;
35530;SDS011;21637;53.352;-6.356;2023-10-13T09:25:03;6.35;;;2.40;;
35530;SDS011;21637;53.352;-6.356;2023-10-13T09:27:48;5.75;;;1.90;;
35530;SDS011;21637;53.352;-6.356;2023-10-13T09:30:18;10.18;;;2.53;;
35530;SDS011;21637;53.352;-6.356;2023-10-13T09:32:46;8.40;;;2.40;;
35530;SDS011;21637;53.352;-6.356;2023-10-13T09:35:19;7.18;;;2.53;;
35530;SDS011;21637;53.352;-6.356;2023-10-13T09:37:48;5.03;;;2.30;;
35530;SDS011;21637;53.352;-6.356;2023-10-13T09:40:16;5.40;;;2.40;;
35530;SDS011;21637;53.352;-6.356;2023-10-13T09:42:58;9.90;;;2.50;;
35530;SDS011;21637;53.352;-6.356;2023-10-13T09:45:33;9.65;;;2.35;;
35530;SDS011;21637;53.352;-6.356;2023-10-13T09:48:11;7.15;;;2.30;;
35530;SDS011;21637;53.352;-6.356;2023-10-13T09:50:47;9.45;;;2.30;;
35530;SDS011;21637;53.352;-6.356;2023-10-13T09:53:16;8.27;;;2.53;;
35530;SDS011;21637;53.352;-6.356;2023-10-13T09:55:55;7.10;;;2.50;;
35530;SDS011;21637;53.352;-6.356;2023-10-13T09:58:36;9.30;;;2.47;;
35530;SDS011;21637;53.352;-6.356;2023-10-13T10:01:12;8.13;;;2.30;;
35530;SDS011;21637;53.352;-6.356;2023-10-13T10:03:50;9.93;;;2.63;;
35530;SDS011;21637;53.352;-6.356;2023-10-13T10:06:35;11.82;;;3.08;;
35530;SDS011;21637;53.352;-6.356;2023-10-13T10:09:05;11.15;;;2.30;;
35530;SDS011;21637;53.352;-6.356;2023-10-13T10:17:21;14.35;;;2.90;;
35530;SDS011;21637;53.352;-6.356;2023-10-13T10:19:48;11.63;;;2.90;;
35530;SDS011;21637;53.352;-6.356;2023-10-13T10:22:31;13.00;;;3.28;;
35530;SDS011;21637;53.352;-6.356;2023-10-13T10:25:05;13.77;;;3.05;;
35530;SDS011;21637;53.352;-6.356;2023-10-13T10:27:56;18.13;;;3.42;;
35530;SDS011;21637;53.352;-6.356;2023-10-13T10:30:24;11.10;;;3.05;;
35530;SDS011;21637;53.352;-6.356;2023-10-13T10:32:53;19.88;;;3.83;;
35530;SDS011;21637;53.352;-6.356;2023-10-13T10:35:24;13.13;;;2.92;;
35530;SDS011;21637;53.352;-6.356;2023-10-13T10:37:55;15.00;;;3.38;;
35530;SDS011;21637;53.352;-6.356;2023-10-13T10:40:28;20.85;;;3.75;;
35530;SDS011;21637;53.352;-6.356;2023-10-13T10:43:13;18.25;;;4.30;;
35530;SDS011;21637;53.352;-6.356;2023-10-13T10:45:45;12.80;;;3.63;;
35530;SDS011;21637;53.352;-6.356;2023-10-13T10:48:14;13.63;;;5.20;;
35530;SDS011;21637;53.352;-6.356;2023-10-13T10:50:52;14.07;;;5.43;;
35530;SDS011;21637;53.352;-6.356;2023-10-13T10:53:24;15.10;;;4.68;;
35530;SDS011;21637;53.352;-6.356;2023-10-13T10:56:08;12.40;;;3.90;;
35530;SDS011;21637;53.352;-6.356;2023-10-13T10:58:57;15.82;;;3.50;;
35530;SDS011;21637;53.352;-6.356;2023-10-13T11:01:28;11.88;;;2.85;;
35530;SDS011;21637;53.352;-6.356;2023-10-13T11:04:06;10.93;;;5.35;;
35530;SDS011;21637;53.352;-6.356;2023-10-13T11:06:56;15.00;;;6.95;;
35530;SDS011;21637;53.352;-6.356;2023-10-13T11:09:26;19.85;;;8.07;;
35530;SDS011;21637;53.352;-6.356;2023-10-13T11:11:56;19.30;;;6.38;;
35530;SDS011;21637;53.352;-6.356;2023-10-13T11:14:40;16.30;;;3.70;;
35530;SDS011;21637;53.352;-6.356;2023-10-13T11:17:22;9.88;;;2.78;;
35530;SDS011;21637;53.352;-6.356;2023-10-13T11:20:23;9.73;;;2.60;;
35530;SDS011;21637;53.352;-6.356;2023-10-13T11:23:00;8.82;;;2.60;;
35530;SDS011;21637;53.352;-6.356;2023-10-13T11:25:30;10.98;;;2.78;;
35530;SDS011;21637;53.352;-6.356;2023-10-13T11:28:11;13.00;;;2.70;;
35530;SDS011;21637;53.352;-6.356;2023-10-13T11:30:52;9.75;;;2.63;;
35530;SDS011;21637;53.352;-6.356;2023-10-13T11:33:21;14.98;;;2.85;;
35530;SDS011;21637;53.352;-6.356;2023-10-13T11:35:54;11.90;;;3.03;;
35530;SDS011;21637;53.352;-6.356;2023-10-13T11:38:30;12.60;;;2.33;;
35530;SDS011;21637;53.352;-6.356;2023-10-13T11:41:02;10.05;;;2.67;;
35530;SDS011;21637;53.352;-6.356;2023-10-13T11:46:11;12.10;;;3.28;;
35530;SDS011;21637;53.352;-6.356;2023-10-13T11:48:40;12.10;;;3.10;;
35530;SDS011;21637;53.352;-6.356;2023-10-13T11:51:12;10.73;;;2.67;;
35530;SDS011;21637;53.352;-6.356;2023-10-13T11:53:58;8.07;;;2.35;;
35530;SDS011;21637;53.352;-6.356;2023-10-13T11:56:24;12.30;;;2.85;;
35530;SDS011;21637;53.352;-6.356;2023-10-13T11:58:50;16.23;;;3.15;;
35530;SDS011;21637;53.352;-6.356;2023-10-13T12:01:17;8.95;;;2.38;;
35530;SDS011;21637;53.352;-6.356;2023-10-13T12:03:43;12.70;;;2.40;;
35530;SDS011;21637;53.352;-6.356;2023-10-13T12:06:29;13.88;;;2.15;;
35530;SDS011;21637;53.352;-6.356;2023-10-13T12:09:02;9.90;;;2.72;;
35530;SDS011;21637;53.352;-6.356;2023-10-13T12:11:41;9.80;;;2.30;;
35530;SDS011;21637;53.352;-6.356;2023-10-13T12:14:07;9.60;;;2.33;;
35530;SDS011;21637;53.352;-6.356;2023-10-13T12:16:45;10.52;;;2.40;;
35530;SDS011;21637;53.352;-6.356;2023-10-13T12:19:15;12.27;;;2.20;;
35530;SDS011;21637;53.352;-6.356;2023-10-13T12:21:51;9.65;;;2.33;;
35530;SDS011;21637;53.352;-6.356;2023-10-13T12:24:22;7.70;;;2.03;;
35530;SDS011;21637;53.352;-6.356;2023-10-13T12:27:01;10.00;;;2.40;;
35530;SDS011;21637;53.352;-6.356;2023-10-13T12:29:52;11.77;;;2.45;;
35530;SDS011;21637;53.352;-6.356;2023-10-13T12:32:18;14.27;;;2.75;;
35530;SDS011;21637;53.352;-6.356;2023-10-13T12:34:49;10.60;;;2.30;;
35530;SDS011;21637;53.352;-6.356;2023-10-13T12:37:27;6.93;;;2.25;;
35530;SDS011;21637;53.352;-6.356;2023-10-13T12:40:18;11.85;;;2.05;;
35530;SDS011;21637;53.352;-6.356;2023-10-13T12:43:03;6.40;;;1.73;;
35530;SDS011;21637;53.352;-6.356;2023-10-13T12:45:48;10.50;;;1.95;;
35530;SDS011;21637;53.352;-6.356;2023-10-13T12:48:34;10.85;;;2.85;;
35530;SDS011;21637;53.352;-6.356;2023-10-13T12:51:19;11.10;;;1.98;;
35530;SDS011;21637;53.352;-6.356;2023-10-13T12:53:51;6.50;;;1.55;;
35530;SDS011;21637;53.352;-6.356;2023-10-13T12:56:18;6.50;;;1.90;;
35530;SDS011;21637;53.352;-6.356;2023-10-13T12:58:54;7.47;;;1.88;;
35530;SDS011;21637;53.352;-6.356;2023-10-13T13:01:24;7.20;;;1.80;;
35530;SDS011;21637;53.352;-6.356;2023-10-13T13:03:57;8.50;;;2.13;;
35530;SDS011;21637;53.352;-6.356;2023-10-13T13:06:24;13.73;;;1.92;;
35530;SDS011;21637;53.352;-6.356;2023-10-13T13:08:51;4.82;;;1.70;;
35530;SDS011;21637;53.352;-6.356;2023-10-13T13:11:21;5.50;;;1.63;;
35530;SDS011;21637;53.352;-6.356;2023-10-13T13:13:48;7.22;;;1.67;;
35530;SDS011;21637;53.352;-6.356;2023-10-13T13:18:58;6.75;;;1.70;;
35530;SDS011;21637;53.352;-6.356;2023-10-13T13:21:28;6.13;;;1.70;;
35530;SDS011;21637;53.352;-6.356;2023-10-13T13:23:54;9.07;;;2.25;;
35530;SDS011;21637;53.352;-6.356;2023-10-13T13:26:20;6.38;;;1.60;;
35530;SDS011;21637;53.352;-6.356;2023-10-13T13:28:47;9.95;;;1.98;;
35530;SDS011;21637;53.352;-6.356;2023-10-13T13:31:19;6.90;;;2.20;;
35530;SDS011;21637;53.352;-6.356;2023-10-13T13:33:54;12.00;;;2.10;;
35530;SDS011;21637;53.352;-6.356;2023-10-13T13:36:20;8.77;;;1.80;;
35530;SDS011;21637;53.352;-6.356;2023-10-13T13:38:47;6.60;;;1.65;;
35530;SDS011;21637;53.352;-6.356;2023-10-13T13:41:19;6.82;;;1.80;;
35530;SDS011;21637;53.352;-6.356;2023-10-13T13:43:49;7.13;;;1.80;;
35530;SDS011;21637;53.352;-6.356;2023-10-13T13:46:15;10.38;;;2.00;;
35530;SDS011;21637;53.352;-6.356;2023-10-13T13:48:42;8.30;;;1.63;;
35530;SDS011;21637;53.352;-6.356;2023-10-13T13:51:08;10.73;;;1.80;;
35530;SDS011;21637;53.352;-6.356;2023-10-13T13:53:43;10.15;;;1.90;;
35530;SDS011;21637;53.352;-6.356;2023-10-13T13:56:15;13.00;;;2.22;;
35530;SDS011;21637;53.352;-6.356;2023-10-13T13:58:42;11.32;;;2.30;;
35530;SDS011;21637;53.352;-6.356;2023-10-13T14:01:08;11.05;;;2.47;;
35530;SDS011;21637;53.352;-6.356;2023-10-13T14:03:40;7.13;;;1.75;;
35530;SDS011;21637;53.352;-6.356;2023-10-13T14:06:20;12.68;;;2.10;;
35530;SDS011;21637;53.352;-6.356;2023-10-13T14:08:55;9.57;;;1.98;;
35530;SDS011;21637;53.352;-6.356;2023-10-13T14:14:03;15.40;;;2.53;;
35530;SDS011;21637;53.352;-6.356;2023-10-13T14:16:54;13.60;;;2.38;;
35530;SDS011;21637;53.352;-6.356;2023-10-13T14:19:28;8.55;;;1.95;;
35530;SDS011;21637;53.352;-6.356;2023-10-13T14:21:54;7.97;;;2.35;;
35530;SDS011;21637;53.352;-6.356;2023-10-13T14:24:21;13.25;;;2.33;;
35530;SDS011;21637;53.352;-6.356;2023-10-13T14:29:19;11.43;;;2.30;;
35530;SDS011;21637;53.352;-6.356;2023-10-13T14:31:45;8.68;;;2.00;;
35530;SDS011;21637;53.352;-6.356;2023-10-13T14:34:13;8.05;;;2.10;;
35530;SDS011;21637;53.352;-6.356;2023-10-13T14:36:40;8.73;;;1.85;;
35530;SDS011;21637;53.352;-6.356;2023-10-13T14:39:06;13.30;;;2.00;;
35530;SDS011;21637;53.352;-6.356;2023-10-13T14:41:38;9.13;;;1.92;;
35530;SDS011;21637;53.352;-6.356;2023-10-13T14:44:04;8.00;;;1.70;;
35530;SDS011;21637;53.352;-6.356;2023-10-13T14:46:35;9.50;;;2.40;;
35530;SDS011;21637;53.352;-6.356;2023-10-13T14:49:01;12.70;;;2.33;;
35530;SDS011;21637;53.352;-6.356;2023-10-13T14:51:27;8.93;;;2.15;;
35530;SDS011;21637;53.352;-6.356;2023-10-13T14:53:54;8.13;;;1.90;;
35530;SDS011;21637;53.352;-6.356;2023-10-13T14:56:21;14.07;;;2.88;;
35530;SDS011;21637;53.352;-6.356;2023-10-13T14:58:50;13.25;;;2.72;;
35530;SDS011;21637;53.352;-6.356;2023-10-13T15:01:17;10.85;;;2.65;;
35530;SDS011;21637;53.352;-6.356;2023-10-13T15:03:46;13.60;;;2.42;;
35530;SDS011;21637;53.352;-6.356;2023-10-13T15:06:24;10.05;;;2.55;;
35530;SDS011;21637;53.352;-6.356;2023-10-13T15:08:54;12.05;;;2.60;;
35530;SDS011;21637;53.352;-6.356;2023-10-13T15:11:21;11.65;;;2.30;;
35530;SDS011;21637;53.352;-6.356;2023-10-13T15:13:52;9.60;;;2.60;;
35530;SDS011;21637;53.352;-6.356;2023-10-13T15:16:27;9.85;;;2.08;;
35530;SDS011;21637;53.352;-6.356;2023-10-13T15:18:53;10.85;;;1.88;;
35530;SDS011;21637;53.352;-6.356;2023-10-13T15:23:49;9.15;;;1.90;;
35530;SDS011;21637;53.352;-6.356;2023-10-13T15:26:17;8.90;;;2.05;;
35530;SDS011;21637;53.352;-6.356;2023-10-13T15:28:43;13.55;;;2.45;;
35530;SDS011;21637;53.352;-6.356;2023-10-13T15:31:18;10.63;;;2.67;;
35530;SDS011;21637;53.352;-6.356;2023-10-13T15:33:56;9.25;;;2.03;;
35530;SDS011;21637;53.352;-6.356;2023-10-13T15:36:22;12.25;;;2.75;;
35530;SDS011;21637;53.352;-6.356;2023-10-13T15:38:49;8.02;;;2.50;;
35530;SDS011;21637;53.352;-6.356;2023-10-13T15:43:49;12.02;;;2.40;;
35530;SDS011;21637;53.352;-6.356;2023-10-13T15:46:16;6.13;;;1.65;;
35530;SDS011;21637;53.352;-6.356;2023-10-13T15:48:43;13.07;;;2.78;;
35530;SDS011;21637;53.352;-6.356;2023-10-13T15:51:11;10.88;;;2.28;;
35530;SDS011;21637;53.352;-6.356;2023-10-13T15:53:37;8.80;;;2.70;;
35530;SDS011;21637;53.352;-6.356;2023-10-13T15:56:04;5.70;;;1.80;;
35530;SDS011;21637;53.352;-6.356;2023-10-13T16:01:15;7.30;;;1.73;;